createdAt,value
2023-04-28T14:04:43.935Z,15.90
2023-04-28T14:07:11.017Z,15.80
2023-04-28T14:09:37.902Z,15.70
2023-04-28T14:12:04.739Z,15.70
2023-04-28T14:14:31.700Z,15.60
2023-04-28T14:16:58.998Z,15.60
2023-04-28T14:19:27.068Z,15.50
2023-04-28T14:21:53.952Z,15.50
2023-04-28T14:24:20.877Z,15.40
2023-04-28T14:26:49.548Z,15.30
2023-04-28T14:29:16.516Z,15.20
2023-04-28T14:31:43.432Z,15.10
2023-04-28T14:34:10.791Z,15.00
2023-04-28T14:36:38.389Z,14.90
2023-04-28T14:39:05.189Z,14.90
2023-04-28T14:41:32.003Z,15.00
2023-04-28T14:43:58.951Z,15.00
2023-04-28T14:46:26.335Z,15.00
2023-04-28T14:48:53.708Z,15.00
2023-04-28T14:51:20.538Z,15.10
2023-04-28T14:53:47.378Z,15.10
2023-04-28T14:56:19.218Z,15.10
2023-04-28T14:58:47.461Z,14.90
2023-04-28T15:01:14.341Z,14.70
2023-04-28T15:03:41.378Z,14.50
2023-04-28T15:06:08.361Z,14.40
2023-04-28T15:08:37.163Z,14.30
2023-04-28T15:11:04.001Z,14.20
2023-04-28T15:13:30.895Z,14.10
2023-04-28T15:15:58.130Z,14.00
2023-04-28T15:18:25.056Z,13.90
2023-04-28T15:20:51.944Z,13.70
2023-04-28T15:23:19.864Z,13.60
2023-04-28T15:25:47.256Z,13.50
2023-04-28T15:28:14.058Z,13.40
2023-04-28T15:30:40.859Z,13.30
2023-04-28T15:33:07.857Z,13.20
2023-04-28T15:35:36.620Z,13.10
2023-04-28T15:38:03.517Z,13.00
2023-04-28T15:40:30.950Z,12.80
2023-04-28T15:42:57.903Z,12.80
2023-04-28T15:45:24.830Z,12.70
2023-04-28T15:47:51.979Z,12.60
2023-04-28T15:50:20.358Z,12.50
2023-04-28T15:52:49.991Z,12.40
2023-04-28T15:55:18.690Z,12.40
2023-04-28T15:57:46.634Z,12.40
2023-04-28T16:00:15.463Z,12.40
2023-04-28T16:02:43.688Z,12.40
2023-04-28T16:05:11.395Z,12.40
2023-04-28T16:07:39.219Z,12.40
2023-04-28T16:10:10.096Z,12.40
2023-04-28T16:12:37.474Z,12.40
2023-04-28T16:15:05.154Z,12.40
2023-04-28T16:17:33.897Z,12.40
2023-04-28T16:20:00.904Z,12.40
2023-04-28T16:22:30.576Z,12.40
2023-04-28T16:24:57.745Z,12.30
2023-04-28T16:27:24.583Z,12.30
2023-04-28T16:29:51.672Z,12.20
2023-04-28T16:32:19.151Z,12.10
2023-04-28T16:34:46.036Z,12.10
2023-04-28T16:37:12.878Z,12.00
2023-04-28T16:39:39.657Z,11.90
2023-04-28T16:42:06.616Z,11.80
2023-04-28T16:44:34.748Z,11.70
2023-04-28T16:47:01.848Z,11.70
2023-04-28T16:49:28.690Z,11.70
2023-04-28T16:52:06.120Z,11.60
2023-04-28T16:54:33.330Z,11.60
2023-04-28T16:57:02.468Z,11.50
2023-04-28T16:59:29.795Z,11.50
2023-04-28T17:02:01.853Z,11.50
2023-04-28T17:04:28.931Z,11.40
2023-04-28T17:06:56.168Z,11.40
2023-04-28T17:09:23.055Z,11.30
2023-04-28T17:11:50.310Z,11.30
2023-04-28T17:14:17.205Z,11.30
2023-04-28T17:16:44.193Z,11.30
2023-04-28T17:19:12.098Z,11.20
2023-04-28T17:21:38.896Z,11.20
2023-04-28T17:24:06.011Z,11.10
2023-04-28T17:26:32.818Z,11.10
2023-04-28T17:28:59.951Z,11.00
2023-04-28T17:31:27.415Z,11.00
2023-04-28T17:33:56.160Z,10.90
2023-04-28T17:36:23.292Z,10.90
2023-04-28T17:38:52.940Z,10.80
2023-04-28T17:41:19.971Z,10.70
2023-04-28T17:43:48.108Z,10.70
2023-04-28T17:46:15.905Z,10.60
2023-04-28T17:48:43.167Z,10.50
2023-04-28T17:51:10.047Z,10.50
2023-04-28T17:53:37.910Z,10.40
2023-04-28T19:01:27.627Z,9.10
2023-04-28T19:03:54.840Z,9.10
2023-04-28T19:06:22.356Z,9.00
2023-04-28T19:08:49.184Z,9.00
2023-04-28T19:11:16.025Z,9.00
2023-04-28T19:13:44.653Z,9.00
2023-04-28T19:16:11.492Z,8.90
2023-04-28T19:18:39.569Z,8.90
2023-04-28T19:21:06.455Z,8.90
2023-04-28T19:23:33.736Z,8.80
2023-04-28T19:26:01.886Z,8.80
2023-04-28T19:28:29.436Z,8.80
2023-04-28T19:30:57.693Z,8.80
2023-04-28T19:33:27.980Z,8.80
2023-04-28T19:35:55.406Z,8.80
2023-04-28T19:38:23.486Z,8.70
2023-04-28T19:40:53.703Z,8.70
2023-04-28T19:43:20.486Z,8.70
2023-04-28T19:45:47.650Z,8.70
2023-04-28T19:48:14.652Z,8.70
2023-04-28T19:50:42.390Z,8.70
2023-04-28T19:53:19.716Z,8.70
2023-04-28T19:55:50.554Z,8.60
